Time;durP1;ratioP1;P1;durP2;ratioP2;P2;SDS_P1;SDS_P2;PMS_P1;PMS_P2;Temp;Humidity;BMP_temperature;BMP_pressure;BME280_temperature;BME280_humidity;BME280_pressure;Samples;Min_cycle;Max_cycle;Signal;HPM_P1;HPM_P2
2022/05/19 00:02:15;;;;;;;7.78;5.15;;;;;;;6.48;100.00;100725.58;1686726;84;21317;-69
2022/05/19 00:04:42;;;;;;;6.03;4.58;;;;;;;6.45;100.00;100724.77;1686377;85;21043;-70
2022/05/19 00:07:08;;;;;;;9.03;5.42;;;;;;;6.41;100.00;100727.84;1686450;85;21125;-70
2022/05/19 00:09:37;;;;;;;7.58;6.00;;;;;;;6.38;100.00;100733.11;1686529;85;21054;-69
2022/05/19 00:12:12;;;;;;;12.20;6.20;;;;;;;6.33;100.00;100728.37;1686390;85;21061;-70
2022/05/19 00:14:40;;;;;;;8.93;5.20;;;;;;;6.29;100.00;100729.28;1664364;85;22230;-69
2022/05/19 00:17:06;;;;;;;10.88;5.92;;;;;;;6.27;100.00;100731.05;1658727;86;21082;-69
2022/05/19 00:19:33;;;;;;;9.05;6.03;;;;;;;6.02;100.00;100693.80;1659016;86;21129;-69
2022/05/19 00:21:59;;;;;;;8.83;5.30;;;;;;;6.20;100.00;100733.30;1658770;86;21093;-69
2022/05/19 00:24:28;;;;;;;9.85;6.30;;;;;;;6.16;100.00;100726.36;1658825;86;21553;-71
2022/05/19 00:26:58;;;;;;;7.67;5.78;;;;;;;6.13;100.00;100726.39;1658840;86;21173;-70
2022/05/19 00:29:26;;;;;;;9.60;6.28;;;;;;;6.07;100.00;100734.73;1658917;86;21062;-70
2022/05/19 00:31:54;;;;;;;8.98;6.60;;;;;;;5.99;100.00;100725.20;1658530;86;21558;-69
2022/05/19 00:34:21;;;;;;;12.07;6.25;;;;;;;5.98;100.00;100732.19;1658847;86;21065;-71
2022/05/19 00:36:49;;;;;;;10.65;6.50;;;;;;;5.95;100.00;100730.89;1658653;84;22108;-69
2022/05/19 00:39:16;;;;;;;8.45;5.30;;;;;;;5.90;100.00;100728.73;1658727;86;21149;-70
2022/05/19 00:41:44;;;;;;;17.32;6.62;;;;;;;5.88;100.00;100733.09;1658621;86;21378;-69
2022/05/19 00:44:13;;;;;;;11.30;6.55;;;;;;;5.82;100.00;100726.19;1658798;86;25718;-71
2022/05/19 00:46:52;;;;;;;11.30;6.70;;;;;;;5.82;100.00;100735.34;1658637;86;21085;-69
2022/05/19 00:49:30;;;;;;;14.53;7.20;;;;;;;5.80;100.00;100729.70;1658901;86;21801;-68
2022/05/19 00:52:02;;;;;;;13.20;7.53;;;;;;;5.77;100.00;100737.54;1658683;86;21246;-68
2022/05/19 00:54:45;;;;;;;13.25;7.75;;;;;;;5.73;100.00;100742.36;1658677;86;21069;-69
2022/05/19 00:57:22;;;;;;;18.23;8.10;;;;;;;5.67;100.00;100738.91;1652676;85;21066;-69
2022/05/19 00:59:57;;;;;;;15.23;7.78;;;;;;;5.63;100.00;100741.11;1658583;86;21160;-70
2022/05/19 01:02:28;;;;;;;13.98;7.75;;;;;;;5.59;100.00;100736.81;1658864;86;21156;-70
2022/05/19 01:05:02;;;;;;;15.98;8.58;;;;;;;5.59;100.00;100741.14;1658495;86;21366;-69
2022/05/19 01:07:51;;;;;;;13.58;7.42;;;;;;;5.54;100.00;100738.56;1658429;86;21887;-68
2022/05/19 01:10:20;;;;;;;16.67;8.53;;;;;;;5.52;100.00;100735.13;1658674;85;21605;-69
2022/05/19 01:12:49;;;;;;;16.05;8.70;;;;;;;5.50;100.00;100743.41;1658514;86;21129;-70
2022/05/19 01:15:16;;;;;;;19.02;9.18;;;;;;;5.48;100.00;100736.45;1658616;86;21105;-69
2022/05/19 01:17:43;;;;;;;18.57;9.23;;;;;;;5.45;100.00;100738.63;1658658;86;21201;-70
2022/05/19 01:20:17;;;;;;;20.20;9.83;;;;;;;5.41;100.00;100740.41;1658545;86;21030;-69
2022/05/19 01:23:03;;;;;;;18.48;9.35;;;;;;;5.40;100.00;100740.41;1637867;86;21106;-70
2022/05/19 01:25:52;;;;;;;21.85;9.55;;;;;;;5.39;100.00;100741.30;1658484;86;21106;-69
2022/05/19 01:28:19;;;;;;;19.23;9.08;;;;;;;5.36;100.00;100743.91;1658759;86;21089;-69
2022/05/19 01:30:45;;;;;;;22.52;10.53;;;;;;;5.33;100.00;100746.09;1658515;86;21255;-68
2022/05/19 01:33:11;;;;;;;18.15;9.23;;;;;;;5.33;100.00;100743.93;1658599;86;21105;-70
2022/05/19 01:35:38;;;;;;;16.85;9.15;;;;;;;5.33;100.00;100743.48;1658701;84;21050;-68
2022/05/19 01:38:22;;;;;;;16.67;8.73;;;;;;;5.31;100.00;100748.30;1658892;86;21597;-68
2022/05/19 01:41:11;;;;;;;22.62;10.90;;;;;;;5.29;100.00;100750.04;1658033;86;21161;-69
2022/05/19 01:44:17;;;;;;;21.70;10.82;;;;;;;5.25;100.00;100752.68;1658761;86;21259;-70
2022/05/19 01:46:48;;;;;;;20.85;10.10;;;;;;;5.22;100.00;100754.02;1658839;86;21129;-69
2022/05/19 01:49:31;;;;;;;17.17;8.90;;;;;;;5.19;100.00;100749.23;1658919;86;21046;-69
2022/05/19 01:52:12;;;;;;;12.70;7.75;;;;;;;5.18;100.00;100756.20;1666167;85;21077;-69
2022/05/19 01:54:48;;;;;;;20.35;10.48;;;;;;;5.16;100.00;100755.34;1657714;86;21112;-69
2022/05/19 01:57:34;;;;;;;17.80;9.15;;;;;;;5.12;100.00;100751.00;1659049;86;21110;-69
2022/05/19 02:00:20;;;;;;;24.92;11.25;;;;;;;5.08;100.00;100751.88;1658812;86;21070;-69
2022/05/19 02:03:32;;;;;;;19.45;10.13;;;;;;;5.08;100.00;100757.10;1658932;86;21086;-69
2022/05/19 02:06:19;;;;;;;21.80;11.10;;;;;;;5.06;100.00;100758.84;1658977;86;21161;-71
2022/05/19 02:08:53;;;;;;;21.40;9.73;;;;;;;5.03;100.00;100760.18;1659153;86;21594;-69
2022/05/19 02:11:24;;;;;;;20.00;10.93;;;;;;;5.01;100.00;100760.17;1658831;86;21113;-69
2022/05/19 02:13:53;;;;;;;26.37;10.05;;;;;;;5.01;100.00;100759.31;1658623;86;21097;-69
2022/05/19 02:16:20;;;;;;;22.52;10.43;;;;;;;5.00;100.00;100765.42;1658730;86;21432;-70
2022/05/19 02:18:48;;;;;;;20.30;9.53;;;;;;;4.98;100.00;100765.86;1658706;86;21740;-69
2022/05/19 02:21:18;;;;;;;21.82;9.78;;;;;;;4.99;100.00;100764.97;1658732;86;21066;-69
2022/05/19 02:23:44;;;;;;;16.40;8.60;;;;;;;5.00;100.00;100764.12;1658775;86;21666;-69
2022/05/19 02:26:12;;;;;;;19.23;10.13;;;;;;;5.01;100.00;100763.23;1658683;86;21141;-69
2022/05/19 02:28:47;;;;;;;14.90;8.88;;;;;;;5.05;100.00;100771.48;1658697;86;21090;-69
2022/05/19 02:31:16;;;;;;;17.50;9.73;;;;;;;5.07;100.00;100761.91;1658601;86;21609;-69
2022/05/19 02:33:42;;;;;;;13.60;7.47;;;;;;;5.12;100.00;100767.11;1658717;86;21089;-69
2022/05/19 02:36:10;;;;;;;17.42;9.25;;;;;;;5.18;100.00;100772.31;1662423;84;21155;-69
2022/05/19 02:38:38;;;;;;;11.88;7.95;;;;;;;5.23;100.00;100777.93;1668526;86;21215;-70
2022/05/19 02:41:04;;;;;;;13.03;7.50;;;;;;;5.28;100.00;100774.44;1668914;86;21092;-69
2022/05/19 02:43:31;;;;;;;12.85;7.35;;;;;;;5.32;100.00;100778.78;1668483;86;21100;-69
2022/05/19 02:45:57;;;;;;;15.35;8.03;;;;;;;5.38;100.00;100778.72;1668626;86;21736;-70
2022/05/19 02:48:24;;;;;;;20.88;8.70;;;;;;;5.43;100.00;100782.20;1668759;86;21183;-70
2022/05/19 02:50:51;;;;;;;19.98;8.58;;;;;;;5.48;100.00;100783.04;1668500;86;21590;-68
2022/05/19 02:53:18;;;;;;;19.37;8.18;;;;;;;5.55;100.00;100787.34;1668725;86;21566;-68
2022/05/19 02:55:46;;;;;;;14.90;7.97;;;;;;;5.63;100.00;100790.77;1668570;86;21057;-70
2022/05/19 02:58:14;;;;;;;14.68;8.15;;;;;;;5.77;100.00;100795.04;1668637;86;21063;-70
2022/05/19 03:00:44;;;;;;;15.78;7.90;;;;;;;5.88;100.00;100789.30;1668611;86;22327;-69
2022/05/19 03:03:10;;;;;;;15.83;7.55;;;;;;;5.98;100.00;100789.72;1668565;85;21073;-69
2022/05/19 03:05:37;;;;;;;17.37;7.37;;;;;;;6.11;100.00;100797.45;1668614;86;21578;-70
2022/05/19 03:08:06;;;;;;;17.07;7.50;;;;;;;6.22;100.00;100786.47;1668726;86;21097;-69
2022/05/19 03:10:35;;;;;;;13.00;6.75;;;;;;;6.37;100.00;100795.91;1668987;86;21100;-70
2022/05/19 03:13:02;;;;;;;11.53;6.40;;;;;;;6.53;100.00;100793.56;1668629;86;21937;-70
2022/05/19 03:15:29;;;;;;;10.05;6.80;;;;;;;6.67;100.00;100794.73;1681037;85;21091;-69
2022/05/19 03:17:56;;;;;;;11.65;6.62;;;;;;;6.81;100.00;100791.55;1671735;85;21037;-69
2022/05/19 03:20:23;;;;;;;20.55;7.97;;;;;;;6.96;100.00;100796.19;1680978;85;21056;-69
2022/05/19 03:22:49;;;;;;;14.25;6.37;;;;;;;7.10;100.00;100796.44;1671558;85;21588;-69
2022/05/19 03:25:15;;;;;;;12.25;6.40;;;;;;;7.24;100.00;100784.48;1681122;85;21237;-68
2022/05/19 03:27:43;;;;;;;11.75;6.10;;;;;;;7.42;100.00;100790.38;1671608;85;21076;-69
2022/05/19 03:30:14;;;;;;;12.85;6.05;;;;;;;7.63;100.00;100796.63;1680929;85;21072;-70
2022/05/19 03:32:41;;;;;;;14.33;6.53;;;;;;;7.96;100.00;100789.16;1671422;85;21041;-71
2022/05/19 03:35:09;;;;;;;12.88;6.75;;;;;;;8.58;100.00;100788.98;1681013;85;21032;-69
2022/05/19 03:37:37;;;;;;;11.40;6.22;;;;;;;9.32;100.00;100789.73;1671528;84;21132;-69
2022/05/19 03:40:06;;;;;;;12.25;6.15;;;;;;;9.97;100.00;100793.08;1680718;85;21064;-69
2022/05/19 03:42:33;;;;;;;14.33;6.58;;;;;;;10.57;98.46;100787.66;1671359;85;21093;-70
2022/05/19 03:45:00;;;;;;;11.30;6.42;;;;;;;11.07;94.12;100794.63;1680875;85;21065;-69
2022/05/19 03:47:26;;;;;;;16.10;7.05;;;;;;;11.55;90.79;100794.09;1671514;85;21148;-70
2022/05/19 03:49:54;;;;;;;14.25;6.42;;;;;;;12.03;88.33;100803.64;1680931;85;21917;-68
2022/05/19 03:52:20;;;;;;;17.75;6.58;;;;;;;12.43;85.62;100802.34;1671526;85;21189;-69
2022/05/19 03:54:48;;;;;;;14.00;6.28;;;;;;;12.75;81.69;100795.47;1680789;85;21061;-69
2022/05/19 03:57:17;;;;;;;17.55;7.10;;;;;;;12.93;81.26;100801.00;1671382;85;21100;-70
2022/05/19 03:59:43;;;;;;;14.73;6.70;;;;;;;13.20;78.80;100800.45;1680998;85;21081;-71
2022/05/19 04:02:10;;;;;;;15.00;6.50;;;;;;;13.48;76.86;100796.80;1671710;85;21843;-68
2022/05/19 04:04:38;;;;;;;13.28;6.53;;;;;;;13.79;74.77;100793.83;1680936;85;21041;-69
2022/05/19 04:07:04;;;;;;;16.25;7.65;;;;;;;13.98;73.44;100804.54;1680786;85;21089;-69
2022/05/19 04:09:31;;;;;;;15.48;7.33;;;;;;;14.17;72.10;100805.53;1671679;85;21082;-69
2022/05/19 04:11:59;;;;;;;12.75;6.95;;;;;;;14.37;71.09;100806.00;1680976;85;21623;-69
2022/05/19 04:14:28;;;;;;;13.35;6.12;;;;;;;14.68;69.28;100807.40;1671376;85;21717;-70
2022/05/19 04:16:54;;;;;;;19.07;7.17;;;;;;;14.94;67.14;100809.38;1651767;86;21044;-69
2022/05/19 04:19:21;;;;;;;16.93;7.12;;;;;;;15.17;67.42;100814.98;1651845;86;21056;-70
2022/05/19 04:21:49;;;;;;;19.55;7.62;;;;;;;15.47;65.95;100815.36;1651768;86;21124;-69
2022/05/19 04:24:16;;;;;;;19.40;8.60;;;;;;;15.70;64.17;100816.94;1671814;85;21072;-69
2022/05/19 04:26:42;;;;;;;18.37;8.95;;;;;;;15.91;63.07;100817.73;1660033;86;21272;-70
2022/05/19 04:29:09;;;;;;;26.82;9.63;;;;;;;15.94;61.15;100822.88;1659719;85;21056;-68
2022/05/19 04:31:38;;;;;;;20.55;7.67;;;;;;;15.97;61.50;100814.79;1671949;85;21067;-69
2022/05/19 04:34:06;;;;;;;17.27;8.35;;;;;;;16.11;60.85;100813.64;1671889;85;21070;-68
2022/05/19 04:36:33;;;;;;;19.10;8.43;;;;;;;16.26;60.64;100815.14;1671715;84;21047;-69
2022/05/19 04:39:00;;;;;;;17.60;8.93;;;;;;;16.39;60.53;100806.95;1671950;85;21274;-70
2022/05/19 04:41:29;;;;;;;16.87;7.50;;;;;;;16.65;59.19;100812.73;1671532;85;21083;-69
2022/05/19 04:43:55;;;;;;;17.92;7.90;;;;;;;16.86;59.00;100814.78;1671804;85;21616;-69
2022/05/19 04:46:21;;;;;;;18.75;8.03;;;;;;;17.04;57.79;100815.62;1672125;85;21166;-70
2022/05/19 04:48:48;;;;;;;16.73;8.98;;;;;;;17.23;56.97;100815.04;1671937;85;21541;-70
2022/05/19 04:51:17;;;;;;;18.87;8.20;;;;;;;17.38;56.26;100824.84;1671886;85;21565;-69
2022/05/19 04:53:43;;;;;;;19.25;8.03;;;;;;;17.33;56.06;100816.73;1671825;85;21048;-69
2022/05/19 04:56:10;;;;;;;17.55;7.97;;;;;;;17.51;56.29;100816.20;1671727;85;21131;-70
2022/05/19 04:58:37;;;;;;;18.10;8.25;;;;;;;17.87;56.37;100823.95;1671965;85;21131;-69
2022/05/19 05:01:05;;;;;;;19.17;7.90;;;;;;;18.20;54.17;100819.84;1671871;85;21076;-71
2022/05/19 05:03:32;;;;;;;20.25;8.98;;;;;;;18.45;52.34;100819.28;1671639;85;21607;-70
2022/05/19 05:05:58;;;;;;;14.93;7.65;;;;;;;18.61;50.96;100819.23;1671756;85;21072;-70
2022/05/19 05:08:26;;;;;;;21.70;8.85;;;;;;;18.76;49.82;100821.92;1671789;85;22187;-70
2022/05/19 05:10:55;;;;;;;18.55;8.78;;;;;;;18.89;47.96;100824.27;1671527;85;21647;-70
2022/05/19 05:13:22;;;;;;;19.80;8.03;;;;;;;19.03;46.56;100816.27;1632794;87;21092;-70
2022/05/19 05:15:51;;;;;;;17.95;8.65;;;;;;;19.12;46.31;100813.52;1669529;85;21265;-71
2022/05/19 05:18:18;;;;;;;21.05;8.53;;;;;;;19.26;46.07;100811.33;1669412;84;21117;-71
2022/05/19 05:20:44;;;;;;;17.05;8.53;;;;;;;19.37;45.50;100815.52;1669369;84;21101;-69
2022/05/19 05:23:12;;;;;;;25.77;9.75;;;;;;;19.50;45.59;100812.91;1669343;85;21148;-70
2022/05/19 05:25:39;;;;;;;20.75;9.13;;;;;;;19.64;44.58;100812.03;1669534;85;21117;-71
2022/05/19 05:28:06;;;;;;;21.05;8.35;;;;;;;19.62;44.97;100816.61;1669468;85;21142;-70
2022/05/19 05:30:32;;;;;;;21.55;8.78;;;;;;;19.74;44.78;100815.88;1669533;84;21120;-69
2022/05/19 05:33:05;;;;;;;19.35;8.05;;;;;;;19.79;44.21;100812.42;1669329;85;21084;-70
2022/05/19 05:35:34;;;;;;;22.45;9.05;;;;;;;19.63;44.04;100815.67;1669483;85;21085;-70
2022/05/19 05:38:01;;;;;;;22.15;9.00;;;;;;;19.46;44.08;100810.93;1693911;83;21003;-70
2022/05/19 05:40:28;;;;;;;18.77;8.43;;;;;;;19.37;44.37;100816.86;1704667;84;21235;-70
2022/05/19 05:42:55;;;;;;;21.50;10.18;;;;;;;19.35;44.79;100817.42;1704778;83;21022;-70
2022/05/19 05:45:22;;;;;;;19.50;8.40;;;;;;;19.40;44.57;100820.66;1704830;84;21070;-73
2022/05/19 05:49:41;;;;;;;19.95;8.58;;;;;;;19.77;43.60;100817.00;1796627;79;22324;-70
2022/05/19 05:52:07;;;;;;;24.72;7.72;;;;;;;19.85;43.46;100818.72;1756518;81;20977;-71
2022/05/19 05:54:34;;;;;;;17.27;8.35;;;;;;;20.10;43.13;100829.13;1756185;81;21120;-70
2022/05/19 05:57:01;;;;;;;17.90;8.55;;;;;;;20.33;42.24;100823.58;1755967;81;21045;-71
2022/05/19 05:59:28;;;;;;;19.70;9.08;;;;;;;20.43;42.18;100822.48;1755800;81;21919;-70
2022/05/19 06:01:56;;;;;;;22.32;9.45;;;;;;;20.54;40.82;100822.61;1747714;82;21021;-69
2022/05/19 06:04:22;;;;;;;21.48;9.20;;;;;;;20.51;40.80;100822.83;1748023;81;21041;-71
2022/05/19 06:06:48;;;;;;;22.90;9.38;;;;;;;20.46;41.57;100829.83;1747850;82;21276;-70
2022/05/19 06:09:15;;;;;;;17.95;9.00;;;;;;;20.58;40.82;100826.84;1747807;82;21557;-70
2022/05/19 06:11:43;;;;;;;24.82;9.53;;;;;;;20.65;40.45;100829.47;1747933;82;21021;-71
2022/05/19 06:14:10;;;;;;;21.90;8.70;;;;;;;20.73;40.71;100829.81;1748223;82;21019;-70
2022/05/19 06:16:38;;;;;;;24.23;9.08;;;;;;;20.99;40.12;100832.51;1747867;82;21112;-71
2022/05/19 06:19:05;;;;;;;18.70;9.35;;;;;;;21.19;39.23;100830.24;1748195;82;21600;-70
2022/05/19 06:21:36;;;;;;;19.67;8.90;;;;;;;21.27;38.79;100830.58;1747878;82;21006;-71
2022/05/19 06:24:00;;;;;;;16.55;7.83;;;;;;;21.38;38.88;100826.16;1747493;82;21081;-71
2022/05/19 06:26:30;;;;;;;18.62;8.75;;;;;;;21.54;38.27;100829.98;1748058;82;21136;-71
2022/05/19 06:28:56;;;;;;;22.27;9.53;;;;;;;21.67;38.54;100827.73;1748128;82;21104;-71
2022/05/19 06:31:22;;;;;;;20.82;8.45;;;;;;;21.79;37.84;100833.08;1747829;82;21051;-71
2022/05/19 06:33:50;;;;;;;20.68;8.70;;;;;;;21.90;37.98;100837.66;1747774;81;20986;-71
2022/05/19 06:36:16;;;;;;;23.42;9.15;;;;;;;22.00;37.73;100837.34;1748259;82;21434;-70
2022/05/19 06:38:44;;;;;;;51.50;12.95;;;;;;;22.00;36.41;100840.03;1748006;82;21045;-71
2022/05/19 06:43:56;;;;;;;54.83;12.55;;;;;;;22.19;35.71;100835.48;1747980;82;21859;-70
2022/05/19 06:46:22;;;;;;;24.92;9.90;;;;;;;22.01;35.67;100834.17;1748203;82;21210;-72
2022/05/19 06:48:49;;;;;;;20.05;8.95;;;;;;;22.06;36.35;100836.52;1748326;81;21092;-69
2022/05/19 06:51:15;;;;;;;16.07;8.88;;;;;;;22.24;35.46;100837.86;1748812;82;21096;-71
2022/05/19 06:53:42;;;;;;;25.75;8.73;;;;;;;22.45;35.74;100834.53;1748857;82;21502;-72
2022/05/19 06:56:12;;;;;;;16.57;8.50;;;;;;;22.81;34.83;100831.72;1748698;82;21065;-70
2022/05/19 06:58:39;;;;;;;16.73;8.20;;;;;;;22.96;33.99;100824.78;1748807;82;21117;-71
2022/05/19 07:01:05;;;;;;;21.20;8.85;;;;;;;23.14;34.15;100824.71;1748237;82;21057;-70
2022/05/19 07:03:32;;;;;;;23.47;8.98;;;;;;;23.46;33.12;100822.64;1748528;82;21057;-71
2022/05/19 07:05:59;;;;;;;17.50;7.60;;;;;;;23.56;33.39;100824.97;1748321;82;21105;-71
2022/05/19 07:08:26;;;;;;;15.30;7.50;;;;;;;23.70;31.99;100825.70;1748100;82;21951;-70
2022/05/19 07:10:53;;;;;;;14.33;6.00;;;;;;;23.93;31.07;100828.73;1747888;82;21880;-70
2022/05/19 07:13:21;;;;;;;14.60;6.55;;;;;;;24.07;29.81;100826.25;1740785;82;21030;-71
2022/05/19 07:15:47;;;;;;;17.23;8.28;;;;;;;24.04;29.57;100823.33;1718277;83;21077;-70
2022/05/19 07:18:14;;;;;;;18.15;8.03;;;;;;;24.04;31.13;100817.94;1718228;83;21089;-71
2022/05/19 07:20:43;;;;;;;19.17;8.50;;;;;;;24.17;31.11;100824.48;1718415;83;21256;-71
2022/05/19 07:23:19;;;;;;;18.48;8.10;;;;;;;24.22;30.47;100819.56;1718152;83;21049;-70
2022/05/19 07:25:46;;;;;;;24.15;8.25;;;;;;;24.14;30.80;100821.22;1718669;83;21044;-71
2022/05/19 07:28:12;;;;;;;18.37;7.47;;;;;;;24.18;30.17;100821.30;1718242;83;21002;-70
2022/05/19 07:30:41;;;;;;;16.57;7.20;;;;;;;24.20;30.56;100824.72;1718377;83;21605;-71
2022/05/19 07:33:10;;;;;;;14.20;6.55;;;;;;;24.42;29.60;100820.59;1718280;83;21265;-72
2022/05/19 07:35:37;;;;;;;13.85;5.95;;;;;;;24.42;29.60;100820.59;1718393;83;21025;-71
2022/05/19 07:38:05;;;;;;;14.40;6.22;;;;;;;24.49;29.07;100819.13;1718318;83;21557;-70
2022/05/19 07:40:32;;;;;;;11.33;5.65;;;;;;;24.38;29.63;100815.59;1718341;83;21021;-72
2022/05/19 07:45:45;;;;;;;9.80;3.90;;;;;;;24.65;27.23;100804.36;1718302;83;21013;-71
2022/05/19 07:48:11;;;;;;;8.35;3.92;;;;;;;24.76;27.71;100809.68;1717107;83;21058;-72
2022/05/19 07:50:38;;;;;;;7.22;2.87;;;;;;;24.86;27.44;100808.39;1704957;84;21062;-70
2022/05/19 07:53:04;;;;;;;5.53;2.20;;;;;;;25.04;26.81;100801.90;1704942;84;21078;-72
2022/05/19 07:55:31;;;;;;;6.55;2.52;;;;;;;25.10;25.41;100802.22;1705065;84;21105;-71
2022/05/19 07:57:58;;;;;;;6.95;3.30;;;;;;;25.06;26.27;100799.92;1704942;84;21784;-71
2022/05/19 08:00:24;;;;;;;7.75;3.35;;;;;;;24.98;26.10;100803.77;1704738;84;21045;-70
2022/05/19 08:02:51;;;;;;;7.72;3.45;;;;;;;24.88;26.53;100803.22;1704736;84;22175;-71
2022/05/19 08:05:18;;;;;;;7.92;3.08;;;;;;;24.79;26.89;100802.67;1704769;84;21077;-70
2022/05/19 08:07:45;;;;;;;11.85;2.80;;;;;;;24.91;26.40;100792.20;1704615;84;21054;-71
2022/05/19 08:10:20;;;;;;;8.65;2.85;;;;;;;25.03;26.77;100792.97;1704711;84;21168;-71
2022/05/19 08:15:35;;;;;;;7.70;1.77;;;;;;;25.20;26.12;100785.27;1734153;82;21583;-70
2022/05/19 08:18:10;;;;;;;7.80;2.40;;;;;;;25.03;25.87;100792.97;1734092;82;21034;-71
2022/05/19 08:20:40;;;;;;;4.50;2.17;;;;;;;24.94;26.39;100794.24;1734654;82;20987;-72
2022/05/19 08:23:08;;;;;;;5.28;1.75;;;;;;;25.00;26.19;100793.72;1734390;82;21200;-72
2022/05/19 08:25:36;;;;;;;3.58;1.55;;;;;;;25.07;26.30;100788.14;1733908;82;21030;-70
2022/05/19 08:28:03;;;;;;;3.17;1.37;;;;;;;25.01;25.93;100788.70;1733940;82;21113;-71
2022/05/19 08:30:30;;;;;;;3.62;1.47;;;;;;;24.82;26.18;100787.58;1733951;82;21066;-70
2022/05/19 08:32:57;;;;;;;5.20;1.47;;;;;;;24.74;25.73;100780.67;1733811;82;21610;-70
2022/05/19 08:35:23;;;;;;;2.47;1.40;;;;;;;24.68;26.13;100787.92;1734278;82;21191;-71
2022/05/19 08:37:50;;;;;;;4.60;1.37;;;;;;;24.62;26.14;100775.02;1733713;82;21034;-70
2022/05/19 08:40:18;;;;;;;3.00;1.22;;;;;;;24.81;26.26;100777.81;1734338;82;21018;-70
2022/05/19 08:42:50;;;;;;;3.90;1.40;;;;;;;24.96;26.09;100772.06;1733729;82;21673;-72
2022/05/19 08:45:24;;;;;;;3.75;1.35;;;;;;;24.89;26.04;100780.70;1734079;82;21022;-72
2022/05/19 08:47:59;;;;;;;2.15;1.07;;;;;;;24.91;26.28;100769.30;1733719;82;21109;-70
2022/05/19 08:50:34;;;;;;;2.70;1.10;;;;;;;25.06;26.01;100774.33;1746193;81;21510;-70
2022/05/19 08:53:01;;;;;;;4.40;1.20;;;;;;;24.93;25.72;100764.26;1747862;82;21527;-70
2022/05/19 08:55:28;;;;;;;2.80;1.07;;;;;;;24.81;25.71;100767.03;1720347;82;21090;-71
2022/05/19 08:58:12;;;;;;;2.98;1.00;;;;;;;24.85;26.08;100769.83;1720652;82;21040;-72
2022/05/19 09:00:54;;;;;;;2.30;0.90;;;;;;;24.95;25.77;100773.06;1747939;81;21065;-70
2022/05/19 09:03:26;;;;;;;2.62;1.25;;;;;;;24.98;25.76;100775.48;1748211;82;21053;-70
2022/05/19 09:06:19;;;;;;;3.50;1.50;;;;;;;25.02;25.43;100753.52;1748172;81;21050;-71
2022/05/19 09:08:51;;;;;;;2.25;1.25;;;;;;;25.16;25.92;100761.73;1747926;82;21041;-72
2022/05/19 09:11:21;;;;;;;5.12;1.20;;;;;;;25.35;25.65;100769.56;1747652;82;21009;-71
2022/05/19 09:14:03;;;;;;;1.87;1.20;;;;;;;25.30;25.71;100770.81;1735356;82;22186;-71
2022/05/19 09:16:34;;;;;;;7.37;1.50;;;;;;;25.31;25.41;100775.23;1718180;83;21648;-71
2022/05/19 09:19:26;;;;;;;4.25;1.67;;;;;;;25.48;25.13;100760.73;1718573;83;21104;-71
2022/05/19 09:22:10;;;;;;;6.67;1.60;;;;;;;25.45;24.77;100754.28;1649171;86;21060;-70
2022/05/19 09:24:37;;;;;;;2.65;1.40;;;;;;;25.49;25.31;100756.56;1718229;83;21033;-72
2022/05/19 09:27:05;;;;;;;5.35;1.40;;;;;;;25.63;24.88;100750.40;1718200;83;21535;-72
2022/05/19 09:29:45;;;;;;;6.92;1.70;;;;;;;25.61;24.45;100743.81;1718125;83;21053;-72
2022/05/19 09:32:37;;;;;;;3.35;1.30;;;;;;;25.64;25.31;100746.73;1718052;83;21057;-72
2022/05/19 09:35:11;;;;;;;4.60;1.15;;;;;;;25.77;24.92;100745.97;1715953;83;21486;-71
2022/05/19 09:37:45;;;;;;;3.92;1.10;;;;;;;25.77;24.67;100743.75;1718017;83;21041;-71
2022/05/19 09:40:20;;;;;;;2.87;1.00;;;;;;;25.85;25.14;100739.86;1717342;83;21169;-72
2022/05/19 09:43:04;;;;;;;2.65;1.37;;;;;;;25.84;24.41;100746.27;1718196;83;21029;-72
2022/05/19 09:45:39;;;;;;;4.12;1.40;;;;;;;25.96;24.69;100734.36;1718638;83;21363;-72
2022/05/19 09:48:08;;;;;;;2.12;1.00;;;;;;;25.97;24.09;100737.41;1718054;83;21018;-71
2022/05/19 09:50:50;;;;;;;6.70;1.45;;;;;;;26.00;24.15;100743.89;1717811;83;21084;-72
2022/05/19 09:53:26;;;;;;;2.98;1.22;;;;;;;25.95;24.44;100736.22;1717838;83;22151;-72
2022/05/19 09:56:04;;;;;;;2.92;1.25;;;;;;;26.16;23.92;100727.97;1718139;83;21053;-72
2022/05/19 09:58:32;;;;;;;5.80;1.30;;;;;;;26.21;23.92;100728.05;1718271;83;21494;-72
2022/05/19 10:01:09;;;;;;;6.47;1.20;;;;;;;26.05;23.77;100732.16;1718209;83;21174;-73
2022/05/19 10:03:47;;;;;;;2.80;1.22;;;;;;;25.91;23.83;100724.50;1717281;83;21005;-72
2022/05/19 10:06:20;;;;;;;4.42;1.50;;;;;;;25.78;24.35;100722.53;1717960;83;21198;-72
2022/05/19 10:08:47;;;;;;;5.95;1.50;;;;;;;25.91;24.19;100719.11;1717077;83;21108;-72
2022/05/19 10:11:21;;;;;;;4.08;1.40;;;;;;;26.05;24.10;100709.22;1718358;83;22259;-73
2022/05/19 10:13:59;;;;;;;5.40;1.22;;;;;;;26.05;23.25;100713.27;1718126;83;21014;-70
2022/05/19 10:16:56;;;;;;;3.02;1.20;;;;;;;25.81;23.06;100716.84;1717669;83;21025;-71
2022/05/19 10:19:53;;;;;;;2.87;1.10;;;;;;;25.48;24.45;100716.25;1718297;83;21219;-71
2022/05/19 10:22:31;;;;;;;6.15;1.77;;;;;;;25.55;23.94;100701.22;1718302;83;21017;-70
2022/05/19 10:25:40;;;;;;;4.55;1.60;;;;;;;25.85;24.12;100708.84;1718125;82;20993;-70
2022/05/19 10:31:47;;;;;;;2.95;2.08;;;;;;;26.05;23.61;100688.98;1718160;83;21085;-71
2022/05/19 10:34:34;;;;;;;5.03;1.70;;;;;;;25.93;22.69;100688.79;1718149;83;21160;-72
2022/05/19 10:37:33;;;;;;;2.65;1.17;;;;;;;25.66;23.66;100694.34;1718377;83;21057;-71
2022/05/19 10:40:21;;;;;;;3.70;1.77;;;;;;;25.71;24.12;100690.72;1714120;83;21040;-70
2022/05/19 10:43:28;;;;;;;2.70;1.32;;;;;;;26.04;23.59;100683.72;1718310;83;21006;-69
2022/05/19 10:45:56;;;;;;;4.12;1.50;;;;;;;26.21;23.37;100686.20;1718792;83;21116;-71
2022/05/19 10:49:01;;;;;;;3.05;1.42;;;;;;;26.12;23.33;100683.36;1718406;83;21138;-70
2022/05/19 10:51:58;;;;;;;4.35;1.70;;;;;;;25.98;23.49;100678.41;1718397;83;21041;-70
2022/05/19 10:54:59;;;;;;;4.60;1.70;;;;;;;26.00;23.31;100677.77;1718137;82;21085;-71
2022/05/19 10:58:01;;;;;;;2.98;1.65;;;;;;;26.05;22.01;100668.73;1718037;83;21081;-71
2022/05/19 11:00:48;;;;;;;6.53;1.75;;;;;;;25.94;22.70;100668.89;1718446;83;21101;-71
2022/05/19 11:04:01;;;;;;;4.67;1.82;;;;;;;26.03;22.56;100669.38;1717244;83;22317;-71
2022/05/19 11:07:00;;;;;;;4.42;2.27;;;;;;;26.12;22.59;100664.47;1682547;83;21037;-70
2022/05/19 11:09:51;;;;;;;5.58;2.85;;;;;;;26.06;22.46;100665.03;1718304;83;21100;-71
2022/05/19 11:12:49;;;;;;;8.00;3.33;;;;;;;25.94;22.77;100664.84;1718309;83;21042;-71
2022/05/19 11:15:46;;;;;;;10.03;4.25;;;;;;;25.82;22.60;100660.56;1718322;83;21056;-72
2022/05/19 11:18:36;;;;;;;10.38;4.42;;;;;;;25.88;23.08;100655.96;1718412;83;22055;-71
2022/05/19 11:21:19;;;;;;;12.73;4.83;;;;;;;25.94;22.70;100652.70;1677522;83;21244;-72
2022/05/19 11:24:22;;;;;;;10.95;4.95;;;;;;;25.98;23.04;100655.47;1718298;83;21096;-72
2022/05/19 11:27:00;;;;;;;13.93;5.35;;;;;;;26.11;22.29;100654.67;1718353;83;21498;-71
2022/05/19 11:29:37;;;;;;;8.48;3.87;;;;;;;26.22;21.88;100637.44;1718562;83;21077;-71
2022/05/19 11:32:17;;;;;;;9.15;4.37;;;;;;;26.27;22.02;100632.95;1718658;83;21113;-70
2022/05/19 11:35:06;;;;;;;10.28;4.58;;;;;;;26.24;21.74;100640.85;1718557;83;21096;-71
2022/05/19 11:38:01;;;;;;;15.48;4.25;;;;;;;26.22;22.01;100629.85;1718186;83;21049;-72
2022/05/19 11:40:51;;;;;;;10.20;4.30;;;;;;;25.97;22.14;100631.32;1719461;83;21636;-70
2022/05/19 11:43:39;;;;;;;13.93;4.47;;;;;;;25.77;21.96;100626.40;1718518;83;21084;-71
2022/05/19 11:46:18;;;;;;;15.15;4.22;;;;;;;25.64;22.73;100634.30;1718208;83;21250;-72
2022/05/19 11:55:14;;;;;;;11.97;3.80;;;;;;;25.03;23.84;100627.73;1710564;83;21057;-71
2022/05/19 11:58:09;;;;;;;8.93;3.92;;;;;;;24.97;23.76;100613.48;1718103;83;21553;-71
2022/05/19 12:01:17;;;;;;;10.98;4.10;;;;;;;25.06;23.39;100603.22;1738700;82;22065;-71
2022/05/19 12:03:55;;;;;;;11.80;3.47;;;;;;;25.17;23.63;100615.23;1743103;82;21064;-70
2022/05/19 12:06:35;;;;;;;8.33;2.83;;;;;;;25.13;23.28;100612.45;1748133;82;21018;-70